Startpagina
METAR-TAF:

METAR-TAF

Vliegvelden :

Aéroport de La Rochelle-Île de Ré

La Rochelle, Frankrijk

breedte: 46-10-45N, lengte: 1-11-43W, hoogte: 23 m

Actueel weer

Dit bericht is 33 minuten geleden gemaakt, om 20:30 UTC
Wind 7 kt uit het zuidwesten
Temperatuur 11°C
Vochtigheid 94%
Druk 1032 hPa
Zicht 10 km of meer
Geheel bewolkt op 300 ft

METAR: LFBH 232030Z AUTO 23007KT 9999 OVC003 11/10 Q1032 TEMPO 1800 DZ

Tijdstip: 22:03 (21:03 UTC)

Verwachting

Dit bericht is 4 uur en het 3 minuten geleden gemaakt, om 17:00 UTC
Verwachting geldig van 23 om 18 UTC tot 24 om 18 UTC
Wind 10 kt uit het zuidwesten
Zicht 10 km of meer
Gebroken wolken op 1000 ft
Kans 40% :
Tijdelijke
van 23 om 18 UTC tot 24 om 05 UTC
Zicht: 1800 m
Geheel bewolkt op 200 ft
motregen
Wijzigt naar
van 24 om 05 UTC tot 24 om 07 UTC
Gebroken wolken op 1500 ft
Tijdelijke
van 24 om 07 UTC tot 24 om 18 UTC
Gebroken wolken op 1000 ft

TAF: LFBH 231700Z 2318/2418 23010KT 9999 BKN010 PROB40 TEMPO 2318/2405 1800 DZ OVC002 BECMG 2405/2407 BKN015 TEMPO 2407/2418 BKN010

Waarnemingen en weersverwachtingen van meer dan 4000 vliegvelden (METAR en TAF).

De beschikbare stations zijn de gele en rode punten op de kaart.

Ga met uw muis naar het station om de naam te zien.

Klik dan om waarnemingen en weersverwachtingen te zien.

kaart wijzigen: klik op de groene knoppen met een zwart kruis om in te zoomen, op de groene knop met een streepje om uit te zoomen of op de groene pijlen voor aangrenzende kaarten.


METAR-TAF: